Time;durP1;ratioP1;P1;durP2;ratioP2;P2;SDS_P1;SDS_P2;PMS_P1;PMS_P2;Temp;Humidity;BMP_temperature;BMP_pressure;BME280_temperature;BME280_humidity;BME280_pressure;Samples;Min_cycle;Max_cycle;Signal;HPM_P1;HPM_P2
2023/09/29 00:02:16;;;;;;;0.10;0.10;;;;;;;;;;5129507;28;20062;-52
2023/09/29 00:04:41;;;;;;;0.20;0.20;;;;;;;;;;5129446;28;20450;-52
2023/09/29 00:07:07;;;;;;;0.10;0.10;;;;;;;;;;5118962;28;20051;-52
2023/09/29 00:09:33;;;;;;;0.10;0.10;;;;;;;;;;5128926;28;20061;-52
2023/09/29 00:11:59;;;;;;;0.10;0.10;;;;;;;;;;5129449;28;20047;-52
2023/09/29 00:14:25;;;;;;;0.10;0.10;;;;;;;;;;5128824;28;20069;-52
2023/09/29 00:16:50;;;;;;;0.10;0.10;;;;;;;;;;5122864;28;20055;-52
2023/09/29 00:19:16;;;;;;;0.10;0.10;;;;;;;;;;5123875;28;20046;-51
2023/09/29 00:21:41;;;;;;;0.20;0.20;;;;;;;;;;5129491;28;20053;-52
2023/09/29 00:24:07;;;;;;;0.10;0.10;;;;;;;;;;5129116;28;20050;-53
2023/09/29 00:26:32;;;;;;;0.10;0.10;;;;;;;;;;5128966;28;20047;-52
2023/09/29 00:28:59;;;;;;;0.10;0.10;;;;;;;;;;5128876;28;20055;-51
2023/09/29 00:31:24;;;;;;;0.10;0.10;;;;;;;;;;5129087;28;20055;-52
2023/09/29 00:33:50;;;;;;;0.20;0.20;;;;;;;;;;5128782;28;20051;-52
2023/09/29 00:36:16;;;;;;;0.10;0.10;;;;;;;;;;5127708;28;20047;-52
2023/09/29 00:38:41;;;;;;;0.10;0.10;;;;;;;;;;5118980;28;20051;-51
2023/09/29 00:41:07;;;;;;;0.10;0.10;;;;;;;;;;5127765;28;20389;-52
2023/09/29 00:43:35;;;;;;;0.10;0.10;;;;;;;;;;5108048;28;20744;-53
2023/09/29 00:46:03;;;;;;;0.10;0.10;;;;;;;;;;5107929;28;20051;-53
2023/09/29 00:48:32;;;;;;;0.10;0.10;;;;;;;;;;5125914;27;20055;-51
2023/09/29 00:50:59;;;;;;;0.10;0.10;;;;;;;;;;5127837;28;20266;-51
2023/09/29 00:53:24;;;;;;;0.10;0.10;;;;;;;;;;5127764;28;20058;-52
2023/09/29 00:55:50;;;;;;;0.10;0.10;;;;;;;;;;5127766;28;20055;-52
2023/09/29 00:58:17;;;;;;;0.10;0.10;;;;;;;;;;5117148;28;20047;-52
2023/09/29 01:00:42;;;;;;;0.10;0.10;;;;;;;;;;5127647;28;20084;-52
2023/09/29 01:03:12;;;;;;;0.10;0.10;;;;;;;;;;5128026;28;20420;-51
2023/09/29 01:05:42;;;;;;;0.10;0.10;;;;;;;;;;5125207;27;20814;-52
2023/09/29 01:08:09;;;;;;;0.10;0.10;;;;;;;;;;5119936;28;20542;-53
2023/09/29 01:10:36;;;;;;;0.10;0.10;;;;;;;;;;5127286;28;20047;-51
2023/09/29 01:13:02;;;;;;;0.10;0.10;;;;;;;;;;5127476;28;20047;-52
2023/09/29 01:15:28;;;;;;;0.10;0.10;;;;;;;;;;5127571;28;20281;-52
2023/09/29 01:17:54;;;;;;;0.10;0.10;;;;;;;;;;5126283;28;20087;-52
2023/09/29 01:20:37;;;;;;;0.10;0.10;;;;;;;;;;5127142;28;20100;-52
2023/09/29 01:23:03;;;;;;;0.20;0.20;;;;;;;;;;5127608;28;20039;-52
2023/09/29 01:25:29;;;;;;;0.20;0.20;;;;;;;;;;5126991;28;20051;-51
2023/09/29 01:27:55;;;;;;;0.10;0.10;;;;;;;;;;5117716;28;20049;-51
2023/09/29 01:30:21;;;;;;;0.10;0.10;;;;;;;;;;5108332;28;20095;-52
2023/09/29 01:32:47;;;;;;;0.10;0.10;;;;;;;;;;5127436;28;20145;-52
2023/09/29 01:35:17;;;;;;;0.10;0.10;;;;;;;;;;5109722;28;20066;-50
2023/09/29 01:37:44;;;;;;;0.10;0.10;;;;;;;;;;5118599;28;20094;-52
2023/09/29 01:40:10;;;;;;;0.10;0.10;;;;;;;;;;5127458;28;20743;-52
2023/09/29 01:42:36;;;;;;;0.10;0.10;;;;;;;;;;5127281;28;20051;-52
2023/09/29 01:45:04;;;;;;;0.10;0.10;;;;;;;;;;5106952;28;20058;-52
2023/09/29 01:47:30;;;;;;;0.28;0.17;;;;;;;;;;5115969;28;20373;-52
2023/09/29 01:49:56;;;;;;;0.10;0.10;;;;;;;;;;5126310;28;20483;-52
2023/09/29 01:52:22;;;;;;;0.10;0.10;;;;;;;;;;5127726;28;20050;-51
2023/09/29 01:54:49;;;;;;;0.10;0.10;;;;;;;;;;5127472;28;20432;-52
2023/09/29 01:57:16;;;;;;;0.10;0.10;;;;;;;;;;5120884;28;20079;-52
2023/09/29 01:59:41;;;;;;;0.10;0.10;;;;;;;;;;5125176;27;20075;-52
2023/09/29 02:02:07;;;;;;;0.10;0.10;;;;;;;;;;5128085;28;20058;-51
2023/09/29 02:04:34;;;;;;;0.10;0.10;;;;;;;;;;5126633;28;20047;-52
2023/09/29 02:07:00;;;;;;;0.10;0.10;;;;;;;;;;5120322;28;20271;-51
2023/09/29 02:09:26;;;;;;;0.10;0.10;;;;;;;;;;5127094;28;20239;-51
2023/09/29 02:11:54;;;;;;;0.10;0.10;;;;;;;;;;5127150;28;20043;-52
2023/09/29 02:14:20;;;;;;;0.10;0.10;;;;;;;;;;5127064;28;20559;-52
2023/09/29 02:16:48;;;;;;;0.10;0.10;;;;;;;;;;5124783;28;20054;-52
2023/09/29 02:19:14;;;;;;;0.10;0.10;;;;;;;;;;5121422;28;20047;-51
2023/09/29 02:21:41;;;;;;;0.10;0.10;;;;;;;;;;5127133;28;20471;-52
2023/09/29 02:24:07;;;;;;;0.10;0.10;;;;;;;;;;5127326;28;20050;-52
2023/09/29 02:26:34;;;;;;;0.10;0.10;;;;;;;;;;5127864;28;20043;-50
2023/09/29 02:29:01;;;;;;;0.10;0.10;;;;;;;;;;5101401;28;20051;-51
2023/09/29 02:31:27;;;;;;;0.10;0.10;;;;;;;;;;5127398;28;20046;-52
2023/09/29 02:33:53;;;;;;;0.10;0.10;;;;;;;;;;5127338;28;20051;-52
2023/09/29 02:36:19;;;;;;;0.20;0.20;;;;;;;;;;5127091;28;20047;-51
2023/09/29 02:38:44;;;;;;;0.10;0.10;;;;;;;;;;5126595;28;20051;-52
2023/09/29 02:41:10;;;;;;;0.10;0.10;;;;;;;;;;5108516;28;20043;-51
2023/09/29 02:43:36;;;;;;;0.10;0.10;;;;;;;;;;5126353;28;20051;-52
2023/09/29 02:46:01;;;;;;;0.10;0.10;;;;;;;;;;5125954;28;20043;-52
2023/09/29 02:48:28;;;;;;;0.10;0.10;;;;;;;;;;5119491;28;20047;-52
2023/09/29 02:50:53;;;;;;;0.10;0.10;;;;;;;;;;5126245;28;20482;-52
2023/09/29 02:53:19;;;;;;;0.10;0.10;;;;;;;;;;5127207;28;20062;-52
2023/09/29 02:55:45;;;;;;;0.10;0.10;;;;;;;;;;5126352;28;20043;-52
2023/09/29 02:58:11;;;;;;;0.10;0.10;;;;;;;;;;5120186;28;20093;-51
2023/09/29 03:00:37;;;;;;;0.10;0.10;;;;;;;;;;5127102;28;20046;-52
2023/09/29 03:03:04;;;;;;;0.10;0.10;;;;;;;;;;5127234;28;20053;-53
2023/09/29 03:05:30;;;;;;;0.10;0.10;;;;;;;;;;5111911;27;20386;-52
2023/09/29 03:07:56;;;;;;;0.10;0.10;;;;;;;;;;5126459;28;20556;-50
2023/09/29 03:10:25;;;;;;;0.10;0.10;;;;;;;;;;5126152;28;20059;-51
2023/09/29 03:12:50;;;;;;;0.10;0.10;;;;;;;;;;5129990;28;20104;-52
2023/09/29 03:15:16;;;;;;;0.10;0.10;;;;;;;;;;5129897;28;20047;-52
2023/09/29 03:17:44;;;;;;;0.10;0.10;;;;;;;;;;5124150;28;20047;-51
2023/09/29 03:20:10;;;;;;;0.10;0.10;;;;;;;;;;5129993;28;20055;-52
2023/09/29 03:22:37;;;;;;;0.10;0.10;;;;;;;;;;5130880;28;20043;-52
2023/09/29 03:25:03;;;;;;;0.10;0.10;;;;;;;;;;5129689;28;20127;-52
2023/09/29 03:27:29;;;;;;;0.10;0.10;;;;;;;;;;5124323;28;20067;-52
2023/09/29 03:29:54;;;;;;;0.10;0.10;;;;;;;;;;5129427;28;20043;-51
2023/09/29 03:32:20;;;;;;;0.10;0.10;;;;;;;;;;5130113;28;20043;-52
2023/09/29 03:34:47;;;;;;;0.10;0.10;;;;;;;;;;5129919;28;20147;-52
2023/09/29 03:37:13;;;;;;;0.10;0.10;;;;;;;;;;5126488;28;20085;-52
2023/09/29 03:39:38;;;;;;;0.10;0.10;;;;;;;;;;5127335;28;20130;-52
2023/09/29 03:42:04;;;;;;;0.10;0.10;;;;;;;;;;5129890;28;20623;-51
2023/09/29 03:44:29;;;;;;;0.10;0.10;;;;;;;;;;5129066;28;20055;-51
2023/09/29 03:46:55;;;;;;;0.10;0.10;;;;;;;;;;5126532;28;20051;-50
2023/09/29 03:49:21;;;;;;;0.10;0.10;;;;;;;;;;5124530;28;20043;-51
2023/09/29 03:51:48;;;;;;;0.10;0.10;;;;;;;;;;5129843;28;20051;-52
2023/09/29 03:54:13;;;;;;;0.10;0.10;;;;;;;;;;5129083;28;20043;-52
2023/09/29 03:56:39;;;;;;;0.10;0.10;;;;;;;;;;5129644;28;20058;-52
2023/09/29 03:59:05;;;;;;;0.20;0.20;;;;;;;;;;5124354;28;20404;-53
2023/09/29 04:01:31;;;;;;;0.10;0.10;;;;;;;;;;5129393;28;20507;-52
2023/09/29 04:03:56;;;;;;;0.10;0.10;;;;;;;;;;5125624;27;20109;-52
2023/09/29 04:06:22;;;;;;;0.10;0.10;;;;;;;;;;5116097;28;20100;-53
2023/09/29 04:08:48;;;;;;;0.17;0.17;;;;;;;;;;5124020;28;20048;-52
2023/09/29 04:11:13;;;;;;;0.10;0.10;;;;;;;;;;5128832;28;20103;-52
2023/09/29 04:13:41;;;;;;;0.10;0.10;;;;;;;;;;5128788;28;20055;-51
2023/09/29 04:16:07;;;;;;;0.10;0.10;;;;;;;;;;5129478;28;20067;-51
2023/09/29 04:18:33;;;;;;;0.10;0.10;;;;;;;;;;5123924;28;20480;-52
2023/09/29 04:21:00;;;;;;;0.10;0.10;;;;;;;;;;5129427;28;20569;-52
2023/09/29 04:23:26;;;;;;;0.10;0.10;;;;;;;;;;5128682;27;20098;-53
2023/09/29 04:25:51;;;;;;;0.10;0.10;;;;;;;;;;5129475;28;20502;-52
2023/09/29 04:28:17;;;;;;;0.10;0.10;;;;;;;;;;5125663;28;20040;-51
2023/09/29 04:30:43;;;;;;;0.10;0.10;;;;;;;;;;5128569;28;20176;-52
2023/09/29 04:33:08;;;;;;;0.10;0.10;;;;;;;;;;5128721;28;20465;-51
2023/09/29 04:35:34;;;;;;;0.10;0.10;;;;;;;;;;5128578;28;20487;-52
2023/09/29 04:38:00;;;;;;;0.10;0.10;;;;;;;;;;5125576;28;20413;-51
2023/09/29 04:40:26;;;;;;;0.10;0.10;;;;;;;;;;5128736;28;20242;-52
2023/09/29 04:42:51;;;;;;;0.10;0.10;;;;;;;;;;5128680;28;20062;-51
2023/09/29 04:45:17;;;;;;;0.10;0.10;;;;;;;;;;5128870;28;20054;-52
2023/09/29 04:47:42;;;;;;;0.10;0.10;;;;;;;;;;5123888;28;20056;-52
2023/09/29 04:50:09;;;;;;;0.20;0.20;;;;;;;;;;5112928;28;20054;-53
2023/09/29 04:52:35;;;;;;;0.10;0.10;;;;;;;;;;5107617;28;20077;-51
2023/09/29 04:55:00;;;;;;;0.10;0.10;;;;;;;;;;5108010;28;20078;-52
2023/09/29 04:57:26;;;;;;;0.10;0.10;;;;;;;;;;5108092;28;20569;-52
2023/09/29 04:59:51;;;;;;;0.10;0.10;;;;;;;;;;5128475;28;20453;-52
2023/09/29 05:02:17;;;;;;;0.10;0.10;;;;;;;;;;5125215;28;20461;-52
2023/09/29 05:04:43;;;;;;;0.10;0.10;;;;;;;;;;5100764;27;20048;-51
2023/09/29 05:07:08;;;;;;;0.10;0.10;;;;;;;;;;5128002;28;20047;-52
2023/09/29 05:09:35;;;;;;;0.10;0.10;;;;;;;;;;5113920;27;20074;-52
2023/09/29 05:12:00;;;;;;;0.10;0.10;;;;;;;;;;5126099;28;20083;-51
2023/09/29 05:14:26;;;;;;;0.10;0.10;;;;;;;;;;5126270;28;20066;-52
2023/09/29 05:16:53;;;;;;;0.10;0.10;;;;;;;;;;5117713;28;20475;-51
2023/09/29 05:19:19;;;;;;;0.10;0.10;;;;;;;;;;5126764;28;20536;-52
2023/09/29 05:21:45;;;;;;;0.10;0.10;;;;;;;;;;5127016;28;20116;-52
2023/09/29 05:24:10;;;;;;;0.10;0.10;;;;;;;;;;5126600;28;20071;-51
2023/09/29 05:26:36;;;;;;;0.10;0.10;;;;;;;;;;5120477;28;20086;-52
2023/09/29 05:29:01;;;;;;;0.10;0.10;;;;;;;;;;5126892;28;20066;-49
2023/09/29 05:31:27;;;;;;;0.10;0.10;;;;;;;;;;5123670;28;20036;-51
2023/09/29 05:33:54;;;;;;;0.10;0.10;;;;;;;;;;5113853;27;20043;-51
2023/09/29 05:36:21;;;;;;;0.10;0.10;;;;;;;;;;5114229;27;20510;-51
2023/09/29 05:38:46;;;;;;;0.10;0.10;;;;;;;;;;5124579;28;20050;-52
2023/09/29 05:41:12;;;;;;;0.10;0.10;;;;;;;;;;5124827;28;20047;-50
2023/09/29 05:43:37;;;;;;;0.10;0.10;;;;;;;;;;5124676;28;20071;-52
2023/09/29 05:46:03;;;;;;;0.10;0.10;;;;;;;;;;5124068;28;20384;-52
2023/09/29 05:48:29;;;;;;;0.10;0.10;;;;;;;;;;5123709;28;20066;-50
2023/09/29 05:50:55;;;;;;;0.10;0.10;;;;;;;;;;5121161;28;20150;-52
2023/09/29 05:53:20;;;;;;;0.10;0.10;;;;;;;;;;5114384;28;20607;-50
2023/09/29 05:55:46;;;;;;;0.10;0.10;;;;;;;;;;5119698;28;20484;-48
2023/09/29 05:58:12;;;;;;;0.10;0.10;;;;;;;;;;5110365;28;20054;-52
2023/09/29 06:00:37;;;;;;;0.10;0.10;;;;;;;;;;5117325;27;20345;-52
2023/09/29 06:03:03;;;;;;;0.30;0.30;;;;;;;;;;5108090;27;20651;-52
2023/09/29 06:05:29;;;;;;;0.10;0.10;;;;;;;;;;5114714;27;20043;-51
2023/09/29 06:07:55;;;;;;;0.10;0.10;;;;;;;;;;5112260;27;20378;-51
2023/09/29 06:10:24;;;;;;;0.10;0.10;;;;;;;;;;5109860;27;20064;-52
2023/09/29 06:12:50;;;;;;;0.10;0.10;;;;;;;;;;5116554;28;20043;-52
2023/09/29 06:15:16;;;;;;;0.10;0.10;;;;;;;;;;5116182;27;20108;-50
2023/09/29 06:17:41;;;;;;;0.10;0.10;;;;;;;;;;5118418;28;20218;-52
2023/09/29 06:20:07;;;;;;;0.10;0.10;;;;;;;;;;5118417;27;20529;-52
2023/09/29 06:22:34;;;;;;;0.10;0.10;;;;;;;;;;5123211;27;20086;-51
2023/09/29 06:25:00;;;;;;;0.10;0.10;;;;;;;;;;5122085;28;20054;-52
2023/09/29 06:27:26;;;;;;;0.10;0.10;;;;;;;;;;5125362;28;20062;-52
2023/09/29 06:29:52;;;;;;;0.10;0.10;;;;;;;;;;5117003;28;20047;-52
2023/09/29 06:32:17;;;;;;;0.10;0.10;;;;;;;;;;5114856;28;20096;-52
2023/09/29 06:34:43;;;;;;;0.10;0.10;;;;;;;;;;5122503;28;20050;-52
2023/09/29 06:37:09;;;;;;;0.10;0.10;;;;;;;;;;5122921;28;20426;-51
2023/09/29 06:39:35;;;;;;;0.15;0.15;;;;;;;;;;5110816;27;20138;-52
2023/09/29 06:42:01;;;;;;;0.10;0.10;;;;;;;;;;5113451;28;20390;-51
2023/09/29 06:44:27;;;;;;;0.10;0.10;;;;;;;;;;5122786;27;20054;-52
2023/09/29 06:46:52;;;;;;;0.10;0.10;;;;;;;;;;5118501;27;20047;-52
2023/09/29 06:49:18;;;;;;;0.10;0.10;;;;;;;;;;5112453;27;20043;-52
2023/09/29 06:51:43;;;;;;;0.10;0.10;;;;;;;;;;5109969;28;20400;-52
2023/09/29 06:54:10;;;;;;;0.10;0.10;;;;;;;;;;5109157;27;20042;-51
2023/09/29 06:56:36;;;;;;;0.10;0.10;;;;;;;;;;5111180;27;20058;-51
2023/09/29 06:59:02;;;;;;;0.10;0.10;;;;;;;;;;5113040;27;20035;-52
2023/09/29 07:01:28;;;;;;;0.10;0.10;;;;;;;;;;5097016;27;20046;-51
2023/09/29 07:03:54;;;;;;;0.10;0.10;;;;;;;;;;5103164;27;20043;-51
2023/09/29 07:06:23;;;;;;;0.10;0.10;;;;;;;;;;5099663;27;20066;-52
2023/09/29 07:08:49;;;;;;;0.10;0.10;;;;;;;;;;5097742;27;20051;-50
2023/09/29 07:11:14;;;;;;;0.10;0.10;;;;;;;;;;5106374;27;20054;-51
2023/09/29 07:13:40;;;;;;;0.10;0.10;;;;;;;;;;5105200;27;20523;-52
2023/09/29 07:16:06;;;;;;;0.10;0.10;;;;;;;;;;5110164;27;20448;-51
2023/09/29 07:18:31;;;;;;;0.10;0.10;;;;;;;;;;5114995;28;20101;-51
2023/09/29 07:20:57;;;;;;;0.10;0.10;;;;;;;;;;5110203;28;20506;-51
2023/09/29 07:23:23;;;;;;;0.10;0.10;;;;;;;;;;5110899;27;20047;-52
2023/09/29 07:25:51;;;;;;;0.10;0.10;;;;;;;;;;5116478;27;20043;-49
2023/09/29 07:28:16;;;;;;;0.10;0.10;;;;;;;;;;5113968;27;20111;-52
2023/09/29 07:30:42;;;;;;;0.10;0.10;;;;;;;;;;5108820;28;20060;-52
2023/09/29 07:33:09;;;;;;;0.10;0.10;;;;;;;;;;5110103;28;20078;-50
2023/09/29 07:35:35;;;;;;;0.10;0.10;;;;;;;;;;5114108;27;20096;-50
2023/09/29 07:38:00;;;;;;;0.10;0.10;;;;;;;;;;5115024;27;20044;-51
2023/09/29 07:40:26;;;;;;;0.10;0.10;;;;;;;;;;5113292;27;20078;-51
2023/09/29 07:42:52;;;;;;;0.10;0.10;;;;;;;;;;5115267;28;20043;-51
2023/09/29 07:45:18;;;;;;;0.10;0.10;;;;;;;;;;5113740;28;20051;-50
2023/09/29 07:47:44;;;;;;;0.10;0.10;;;;;;;;;;5111381;27;20043;-50
2023/09/29 07:50:10;;;;;;;0.10;0.10;;;;;;;;;;5113529;27;20095;-52
2023/09/29 07:52:38;;;;;;;0.10;0.10;;;;;;;;;;5116515;27;20047;-51
2023/09/29 07:55:05;;;;;;;0.10;0.10;;;;;;;;;;5119889;27;20051;-50
2023/09/29 07:57:30;;;;;;;0.10;0.10;;;;;;;;;;5110804;27;20082;-52
2023/09/29 07:59:56;;;;;;;0.10;0.10;;;;;;;;;;5116993;27;20377;-52
2023/09/29 08:02:22;;;;;;;0.10;0.10;;;;;;;;;;5120520;27;20082;-52
2023/09/29 08:04:47;;;;;;;0.10;0.10;;;;;;;;;;5116318;27;20104;-50
2023/09/29 08:07:13;;;;;;;0.10;0.10;;;;;;;;;;5116684;28;20055;-51
2023/09/29 08:09:39;;;;;;;0.17;0.17;;;;;;;;;;5114005;27;20039;-47
2023/09/29 08:12:05;;;;;;;0.13;0.13;;;;;;;;;;5113262;27;20054;-52
2023/09/29 08:14:31;;;;;;;0.10;0.10;;;;;;;;;;5104758;27;20044;-53
2023/09/29 08:16:57;;;;;;;0.10;0.10;;;;;;;;;;5119954;28;20060;-51
2023/09/29 08:19:24;;;;;;;0.10;0.10;;;;;;;;;;5034585;28;20052;-51
2023/09/29 08:21:50;;;;;;;0.10;0.10;;;;;;;;;;5034593;28;20057;-51
2023/09/29 08:24:15;;;;;;;0.10;0.10;;;;;;;;;;5035619;28;20678;-52
2023/09/29 08:26:41;;;;;;;0.10;0.10;;;;;;;;;;5042998;28;20040;-50
2023/09/29 08:29:09;;;;;;;0.10;0.10;;;;;;;;;;5042108;28;20501;-55
2023/09/29 08:31:35;;;;;;;0.10;0.10;;;;;;;;;;5034171;28;20044;-51
2023/09/29 08:34:01;;;;;;;0.10;0.10;;;;;;;;;;5027630;28;20048;-52
2023/09/29 08:36:27;;;;;;;0.10;0.10;;;;;;;;;;5032166;28;20068;-50
2023/09/29 08:38:56;;;;;;;0.10;0.10;;;;;;;;;;5113261;28;20558;-52
2023/09/29 08:41:27;;;;;;;0.93;0.30;;;;;;;;;;5107168;27;20180;-52
2023/09/29 08:43:53;;;;;;;0.10;0.10;;;;;;;;;;5111968;28;20096;-51
2023/09/29 08:46:33;;;;;;;0.10;0.10;;;;;;;;;;5108764;28;20051;-52
2023/09/29 08:49:00;;;;;;;0.10;0.10;;;;;;;;;;5114523;28;20084;-51
2023/09/29 08:51:26;;;;;;;0.20;0.20;;;;;;;;;;5120455;27;20047;-51
2023/09/29 08:53:52;;;;;;;0.10;0.10;;;;;;;;;;5117948;28;20043;-51
2023/09/29 08:56:18;;;;;;;0.10;0.10;;;;;;;;;;5115276;28;20078;-52
2023/09/29 08:58:45;;;;;;;0.10;0.10;;;;;;;;;;5120140;27;20043;-51
2023/09/29 09:01:10;;;;;;;0.10;0.10;;;;;;;;;;5117827;27;20047;-52
2023/09/29 09:03:36;;;;;;;0.10;0.10;;;;;;;;;;5115364;27;20491;-51
2023/09/29 09:06:05;;;;;;;0.10;0.10;;;;;;;;;;5113672;28;20047;-52
2023/09/29 09:08:31;;;;;;;0.20;0.20;;;;;;;;;;5114992;28;20096;-52
2023/09/29 09:10:58;;;;;;;0.10;0.10;;;;;;;;;;5114334;27;20051;-52
2023/09/29 09:13:26;;;;;;;0.10;0.10;;;;;;;;;;5116073;27;20082;-51
2023/09/29 09:16:00;;;;;;;0.10;0.10;;;;;;;;;;5127437;27;20131;-51
2023/09/29 09:18:27;;;;;;;0.10;0.10;;;;;;;;;;5112331;28;20105;-50
2023/09/29 09:20:53;;;;;;;0.10;0.10;;;;;;;;;;5118777;28;20530;-52
2023/09/29 09:23:19;;;;;;;0.10;0.10;;;;;;;;;;5114401;28;20039;-50
2023/09/29 09:25:44;;;;;;;0.10;0.10;;;;;;;;;;5115306;28;20892;-50
2023/09/29 09:28:18;;;;;;;0.10;0.10;;;;;;;;;;5113222;28;20050;-52
2023/09/29 09:30:44;;;;;;;0.10;0.10;;;;;;;;;;5110767;28;20078;-52
2023/09/29 09:33:18;;;;;;;0.10;0.10;;;;;;;;;;5114102;28;20062;-51
2023/09/29 09:35:44;;;;;;;0.10;0.10;;;;;;;;;;5103978;27;20058;-51
2023/09/29 09:38:10;;;;;;;0.10;0.10;;;;;;;;;;5110169;27;20346;-52
2023/09/29 09:40:36;;;;;;;0.10;0.10;;;;;;;;;;5117824;28;20815;-52
2023/09/29 09:43:05;;;;;;;0.10;0.10;;;;;;;;;;5096835;28;20054;-51
2023/09/29 09:45:34;;;;;;;0.10;0.10;;;;;;;;;;5114401;27;20380;-52
2023/09/29 09:48:02;;;;;;;0.10;0.10;;;;;;;;;;5119615;28;20055;-51
2023/09/29 09:50:28;;;;;;;;;;;;;;;;;;5116489;27;20294;-52
2023/09/29 09:52:54;;;;;;;0.10;0.10;;;;;;;;;;5116512;27;19930;-51
2023/09/29 09:55:23;;;;;;;0.10;0.10;;;;;;;;;;5119281;28;20051;-50
2023/09/29 09:57:50;;;;;;;0.10;0.10;;;;;;;;;;5113588;28;20067;-51
2023/09/29 10:00:15;;;;;;;0.10;0.10;;;;;;;;;;5116090;28;20112;-52
2023/09/29 10:02:43;;;;;;;0.10;0.10;;;;;;;;;;5114779;28;20136;-53
2023/09/29 10:05:16;;;;;;;0.10;0.10;;;;;;;;;;5077518;28;20065;-51
2023/09/29 10:07:45;;;;;;;0.10;0.10;;;;;;;;;;5104801;28;20039;-51
2023/09/29 10:10:23;;;;;;;0.10;0.10;;;;;;;;;;5114412;28;20107;-52
2023/09/29 10:12:52;;;;;;;0.10;0.10;;;;;;;;;;5108279;28;20050;-51
2023/09/29 10:15:18;;;;;;;0.10;0.10;;;;;;;;;;5117938;28;20126;-52
2023/09/29 10:17:44;;;;;;;0.10;0.10;;;;;;;;;;5117616;28;20047;-52
2023/09/29 10:20:19;;;;;;;0.10;0.10;;;;;;;;;;5114811;27;20114;-52
2023/09/29 10:22:46;;;;;;;0.10;0.10;;;;;;;;;;5111684;28;20288;-51
2023/09/29 10:25:19;;;;;;;0.10;0.10;;;;;;;;;;5111562;28;20382;-52
2023/09/29 10:27:49;;;;;;;0.10;0.10;;;;;;;;;;5119126;28;20074;-52
2023/09/29 10:30:16;;;;;;;0.20;0.20;;;;;;;;;;5118185;28;20074;-52
2023/09/29 10:32:45;;;;;;;0.10;0.10;;;;;;;;;;5111272;28;20498;-52
2023/09/29 10:35:18;;;;;;;0.10;0.10;;;;;;;;;;5114913;27;20050;-52
2023/09/29 10:37:47;;;;;;;0.10;0.10;;;;;;;;;;5118456;28;20058;-52
2023/09/29 10:40:21;;;;;;;0.10;0.10;;;;;;;;;;5107408;28;20059;-50
2023/09/29 10:42:47;;;;;;;0.10;0.10;;;;;;;;;;5113949;27;20043;-52
2023/09/29 10:45:23;;;;;;;0.10;0.10;;;;;;;;;;5107196;27;20754;-50
2023/09/29 10:47:49;;;;;;;0.10;0.10;;;;;;;;;;5107698;27;20070;-52
2023/09/29 10:50:14;;;;;;;0.10;0.10;;;;;;;;;;5113314;27;20533;-50
2023/09/29 10:52:40;;;;;;;0.10;0.10;;;;;;;;;;5110489;27;20289;-52
2023/09/29 10:55:10;;;;;;;0.10;0.10;;;;;;;;;;5108811;28;20044;-52
2023/09/29 10:57:37;;;;;;;0.10;0.10;;;;;;;;;;5116091;27;20096;-49
2023/09/29 11:00:05;;;;;;;0.10;0.10;;;;;;;;;;5113133;28;20104;-52
2023/09/29 11:02:32;;;;;;;0.10;0.10;;;;;;;;;;5121000;28;20558;-53
2023/09/29 11:05:00;;;;;;;0.10;0.10;;;;;;;;;;5122257;28;20043;-51
2023/09/29 11:07:29;;;;;;;0.10;0.10;;;;;;;;;;5120039;27;20066;-51
2023/09/29 11:09:55;;;;;;;0.10;0.10;;;;;;;;;;5115879;27;20043;-52
2023/09/29 11:12:23;;;;;;;0.10;0.10;;;;;;;;;;5122538;28;20746;-52
2023/09/29 11:14:48;;;;;;;0.10;0.10;;;;;;;;;;5121486;28;20061;-52
2023/09/29 11:17:14;;;;;;;0.10;0.10;;;;;;;;;;5116563;28;20485;-51
2023/09/29 11:19:49;;;;;;;0.10;0.10;;;;;;;;;;5111219;28;20042;-52
2023/09/29 11:22:17;;;;;;;0.10;0.10;;;;;;;;;;5113679;28;20050;-52
2023/09/29 11:24:44;;;;;;;0.10;0.10;;;;;;;;;;5113798;27;20120;-52
2023/09/29 11:27:11;;;;;;;0.10;0.10;;;;;;;;;;5118880;28;20039;-52
2023/09/29 11:29:37;;;;;;;0.10;0.10;;;;;;;;;;5116697;28;20051;-51
2023/09/29 11:32:04;;;;;;;0.10;0.10;;;;;;;;;;5112206;28;20427;-50
2023/09/29 11:34:31;;;;;;;0.10;0.10;;;;;;;;;;5117263;28;20366;-52
2023/09/29 11:36:57;;;;;;;0.10;0.10;;;;;;;;;;5112187;28;20172;-52
2023/09/29 11:39:22;;;;;;;0.10;0.10;;;;;;;;;;5115836;28;20059;-53
2023/09/29 11:41:48;;;;;;;0.10;0.10;;;;;;;;;;5112836;27;20043;-52
2023/09/29 11:44:14;;;;;;;0.10;0.10;;;;;;;;;;5113839;28;20054;-50
2023/09/29 11:46:40;;;;;;;0.10;0.10;;;;;;;;;;5116462;28;20743;-52
2023/09/29 11:49:07;;;;;;;0.10;0.10;;;;;;;;;;5109868;27;20051;-51
2023/09/29 11:51:33;;;;;;;0.10;0.10;;;;;;;;;;5114011;27;20475;-52
2023/09/29 11:53:59;;;;;;;0.20;0.20;;;;;;;;;;5110764;28;20087;-52
2023/09/29 11:56:25;;;;;;;0.10;0.10;;;;;;;;;;5105881;28;20039;-52
2023/09/29 11:58:50;;;;;;;0.98;0.52;;;;;;;;;;5116823;27;20047;-52
2023/09/29 12:01:17;;;;;;;0.10;0.10;;;;;;;;;;5109573;28;20053;-51
2023/09/29 12:03:42;;;;;;;0.10;0.10;;;;;;;;;;5115906;28;20054;-52
2023/09/29 12:06:08;;;;;;;0.10;0.10;;;;;;;;;;5125993;28;20050;-52
2023/09/29 12:08:35;;;;;;;0.10;0.10;;;;;;;;;;5125121;28;20294;-51
2023/09/29 12:11:05;;;;;;;0.10;0.10;;;;;;;;;;5126127;28;20422;-49
2023/09/29 12:13:31;;;;;;;0.10;0.10;;;;;;;;;;5122271;28;20627;-51
2023/09/29 12:15:57;;;;;;;0.10;0.10;;;;;;;;;;5126684;28;20090;-50
2023/09/29 12:18:23;;;;;;;0.10;0.10;;;;;;;;;;5123724;28;20047;-51
2023/09/29 12:20:52;;;;;;;0.10;0.10;;;;;;;;;;5123139;28;20051;-51
2023/09/29 12:23:18;;;;;;;0.10;0.10;;;;;;;;;;5119019;28;20055;-48
2023/09/29 12:25:43;;;;;;;0.15;0.13;;;;;;;;;;5126973;28;20137;-51
2023/09/29 12:28:09;;;;;;;0.10;0.10;;;;;;;;;;5125897;28;20097;-51
2023/09/29 12:30:35;;;;;;;0.10;0.10;;;;;;;;;;5106431;28;20139;-51
2023/09/29 12:33:00;;;;;;;0.10;0.10;;;;;;;;;;5119636;28;20055;-51
2023/09/29 12:35:26;;;;;;;0.10;0.10;;;;;;;;;;5115803;27;20066;-51
2023/09/29 12:37:52;;;;;;;0.10;0.10;;;;;;;;;;5109912;28;20191;-51
2023/09/29 12:40:17;;;;;;;0.10;0.10;;;;;;;;;;5114435;28;20135;-51
2023/09/29 12:42:47;;;;;;;0.10;0.10;;;;;;;;;;5106426;28;20079;-50
2023/09/29 12:45:13;;;;;;;0.15;0.15;;;;;;;;;;5120907;28;20043;-51
2023/09/29 12:47:40;;;;;;;0.10;0.10;;;;;;;;;;5125824;28;20051;-51
2023/09/29 12:50:07;;;;;;;0.10;0.10;;;;;;;;;;5114652;28;20048;-51
2023/09/29 12:52:33;;;;;;;0.10;0.10;;;;;;;;;;5108529;28;20144;-52
2023/09/29 12:54:58;;;;;;;0.10;0.10;;;;;;;;;;5109069;28;20072;-52
2023/09/29 12:57:24;;;;;;;0.10;0.10;;;;;;;;;;5108648;28;20051;-50
2023/09/29 12:59:49;;;;;;;0.10;0.10;;;;;;;;;;5114874;28;20055;-51
2023/09/29 13:02:15;;;;;;;0.10;0.10;;;;;;;;;;5109494;28;20108;-51
2023/09/29 13:04:41;;;;;;;0.10;0.10;;;;;;;;;;5109075;28;20539;-51
2023/09/29 13:07:08;;;;;;;0.10;0.10;;;;;;;;;;5130605;28;20043;-51
2023/09/29 13:09:35;;;;;;;0.10;0.10;;;;;;;;;;5131045;28;20132;-51
2023/09/29 13:12:00;;;;;;;0.10;0.10;;;;;;;;;;5129762;28;20051;-50
2023/09/29 13:14:26;;;;;;;0.10;0.10;;;;;;;;;;5127382;28;20058;-51
2023/09/29 13:16:52;;;;;;;0.10;0.10;;;;;;;;;;5130024;28;20079;-51
2023/09/29 13:19:18;;;;;;;0.10;0.10;;;;;;;;;;5128655;28;20047;-51
2023/09/29 13:21:45;;;;;;;0.10;0.10;;;;;;;;;;5126993;28;20161;-50
2023/09/29 13:24:12;;;;;;;0.25;0.20;;;;;;;;;;5128899;28;20479;-51
2023/09/29 13:26:41;;;;;;;0.13;0.13;;;;;;;;;;5130582;28;20100;-53
2023/09/29 13:29:08;;;;;;;0.10;0.10;;;;;;;;;;5112746;28;20111;-50
2023/09/29 13:31:35;;;;;;;0.10;0.10;;;;;;;;;;5111722;28;20388;-51
2023/09/29 13:34:00;;;;;;;0.10;0.10;;;;;;;;;;5130686;28;20504;-50
2023/09/29 13:36:26;;;;;;;0.10;0.10;;;;;;;;;;5131084;28;20047;-50
2023/09/29 13:38:51;;;;;;;0.10;0.10;;;;;;;;;;5130606;28;20535;-51
2023/09/29 13:41:18;;;;;;;0.10;0.10;;;;;;;;;;5130750;28;20119;-51
2023/09/29 13:43:43;;;;;;;0.10;0.10;;;;;;;;;;5131064;28;20051;-50
2023/09/29 13:46:09;;;;;;;0.10;0.10;;;;;;;;;;5131239;28;20051;-51
2023/09/29 13:48:37;;;;;;;0.10;0.10;;;;;;;;;;5130187;28;20043;-51
2023/09/29 13:51:03;;;;;;;0.10;0.10;;;;;;;;;;5130750;28;20066;-51
2023/09/29 13:53:29;;;;;;;0.10;0.10;;;;;;;;;;5130406;28;20481;-51
2023/09/29 13:55:55;;;;;;;0.10;0.10;;;;;;;;;;5130065;27;20053;-51
2023/09/29 13:58:20;;;;;;;0.20;0.20;;;;;;;;;;5130354;28;20050;-51
2023/09/29 14:00:49;;;;;;;0.10;0.10;;;;;;;;;;5130737;28;20047;-51
2023/09/29 14:03:15;;;;;;;0.10;0.10;;;;;;;;;;5131193;28;20054;-51
2023/09/29 14:05:41;;;;;;;0.10;0.10;;;;;;;;;;5131163;28;20051;-51
2023/09/29 14:08:07;;;;;;;0.10;0.10;;;;;;;;;;5121288;28;20093;-50
2023/09/29 14:10:33;;;;;;;0.10;0.10;;;;;;;;;;5130922;28;20523;-51
2023/09/29 14:12:58;;;;;;;0.10;0.10;;;;;;;;;;5130148;28;20488;-51
2023/09/29 14:15:24;;;;;;;0.10;0.10;;;;;;;;;;5130775;28;20504;-51
2023/09/29 14:17:49;;;;;;;0.10;0.10;;;;;;;;;;5117078;28;20043;-51
2023/09/29 14:20:16;;;;;;;0.10;0.10;;;;;;;;;;5130442;28;22330;-51
2023/09/29 14:22:41;;;;;;;0.10;0.10;;;;;;;;;;5131052;28;20063;-51
2023/09/29 14:25:07;;;;;;;0.10;0.10;;;;;;;;;;5130822;28;20428;-51
2023/09/29 14:27:33;;;;;;;0.10;0.10;;;;;;;;;;5127670;28;20461;-51
2023/09/29 14:29:58;;;;;;;0.10;0.10;;;;;;;;;;5130671;28;20505;-51
2023/09/29 14:32:24;;;;;;;0.10;0.10;;;;;;;;;;5129972;28;20061;-51
2023/09/29 14:34:49;;;;;;;0.10;0.10;;;;;;;;;;5130313;28;20460;-51
2023/09/29 14:37:15;;;;;;;0.10;0.10;;;;;;;;;;5130676;28;20491;-52
2023/09/29 14:39:40;;;;;;;0.10;0.10;;;;;;;;;;5130237;28;20050;-51